createdAt,value
2022-11-21T05:33:22.858Z,93.50
2022-11-21T05:35:50.259Z,93.60
2022-11-21T05:38:16.647Z,93.60
2022-11-21T05:40:43.234Z,93.70
2022-11-21T05:43:29.437Z,93.50
2022-11-21T05:45:55.575Z,93.70
2022-11-21T05:48:21.728Z,93.50
2022-11-21T05:50:51.260Z,93.60
2022-11-21T05:53:17.410Z,93.70
2022-11-21T05:55:44.229Z,93.70
2022-11-21T05:58:10.843Z,93.80
2022-11-21T06:00:37.699Z,93.70
2022-11-21T06:03:23.516Z,93.70
2022-11-21T06:05:49.840Z,93.60
2022-11-21T06:08:16.862Z,93.70
2022-11-21T06:10:43.051Z,93.60
2022-11-21T06:13:24.181Z,93.20
2022-11-21T06:16:10.188Z,93.50
2022-11-21T06:18:42.025Z,93.70
2022-11-21T06:21:27.727Z,93.70
2022-11-21T06:23:55.140Z,93.80
2022-11-21T06:26:23.740Z,93.90
2022-11-21T06:28:50.746Z,93.90
2022-11-21T06:31:21.417Z,94.10
2022-11-21T06:33:51.135Z,93.90
2022-11-21T06:36:18.395Z,94.10
2022-11-21T06:38:45.551Z,94.00
2022-11-21T06:41:16.460Z,93.90
2022-11-21T06:43:44.644Z,93.90
2022-11-21T06:46:11.203Z,94.00
2022-11-21T06:48:37.671Z,94.00
2022-11-21T06:51:05.298Z,94.10
2022-11-21T06:53:32.270Z,94.00
2022-11-21T06:55:59.406Z,94.00
2022-11-21T06:58:25.954Z,94.10
2022-11-21T07:00:52.228Z,94.10
2022-11-21T07:03:18.595Z,94.00
2022-11-21T07:05:45.294Z,94.00
2022-11-21T07:08:13.477Z,94.00
2022-11-21T07:10:45.127Z,94.10
2022-11-21T07:13:21.507Z,94.00
2022-11-21T07:15:50.080Z,94.00
2022-11-21T07:18:16.492Z,94.00
2022-11-21T07:20:42.830Z,93.90
2022-11-21T07:23:09.141Z,93.80
2022-11-21T07:25:36.616Z,93.80
2022-11-21T07:28:03.665Z,93.80
2022-11-21T07:30:30.155Z,93.80
2022-11-21T07:33:00.439Z,93.70
2022-11-21T07:35:26.850Z,93.70
2022-11-21T07:37:53.088Z,93.70
2022-11-21T07:40:19.718Z,93.50
2022-11-21T07:42:46.348Z,93.30
2022-11-21T07:45:13.589Z,93.40
2022-11-21T07:47:39.778Z,93.50
2022-11-21T07:50:07.095Z,93.60
2022-11-21T07:52:33.291Z,93.40
2022-11-21T07:55:01.700Z,93.80
2022-11-21T07:57:29.259Z,93.30
2022-11-21T07:59:55.459Z,93.30
2022-11-21T08:02:25.898Z,93.10
2022-11-21T08:04:52.503Z,93.00
2022-11-21T08:07:20.941Z,93.00
2022-11-21T08:09:47.115Z,92.70
2022-11-21T08:12:13.887Z,92.90
2022-11-21T08:14:40.138Z,92.80
2022-11-21T08:17:08.073Z,93.30
2022-11-21T08:19:34.637Z,92.60
2022-11-21T08:22:01.014Z,92.40
2022-11-21T08:24:27.561Z,92.40
2022-11-21T08:26:54.017Z,92.70
2022-11-21T08:29:20.206Z,92.70
2022-11-21T08:31:47.179Z,92.30
2022-11-21T08:34:14.781Z,92.20
2022-11-21T08:36:41.073Z,92.20
2022-11-21T08:39:07.276Z,92.40
2022-11-21T08:41:52.138Z,92.10
2022-11-21T08:44:18.403Z,92.10
2022-11-21T08:46:44.731Z,92.40
2022-11-21T08:49:12.045Z,92.50
2022-11-21T08:51:38.449Z,92.60
2022-11-21T08:54:05.618Z,92.90
2022-11-21T08:56:31.945Z,92.30
2022-11-21T08:58:58.695Z,92.30
2022-11-21T09:01:25.132Z,92.40
2022-11-21T09:03:51.574Z,92.30
2022-11-21T09:06:18.185Z,91.90
2022-11-21T09:08:46.990Z,91.90
2022-11-21T09:11:13.464Z,91.80
2022-11-21T09:13:40.073Z,91.50
2022-11-21T09:16:24.638Z,91.80
2022-11-21T09:18:54.152Z,91.80
2022-11-21T09:21:21.817Z,91.00
2022-11-21T09:23:48.194Z,91.60
2022-11-21T09:26:16.716Z,91.90
2022-11-21T09:28:44.033Z,91.40
2022-11-21T09:31:10.542Z,91.70
2022-11-21T09:33:37.692Z,90.80
2022-11-21T09:36:04.690Z,91.60
2022-11-21T09:38:30.911Z,91.20
2022-11-21T09:41:51.515Z,91.10
2022-11-21T09:46:06.151Z,91.10
2022-11-21T09:49:15.670Z,91.00
2022-11-21T09:51:43.097Z,90.90
2022-11-21T09:54:26.653Z,90.50
2022-11-21T09:56:53.589Z,91.00
2022-11-21T10:00:23.542Z,91.30
2022-11-21T10:02:50.530Z,90.50
2022-11-21T10:05:17.294Z,90.70
2022-11-21T10:07:44.574Z,90.80
2022-11-21T10:10:42.787Z,90.60
2022-11-21T10:16:19.286Z,89.70
2022-11-21T10:19:05.830Z,90.00
2022-11-21T10:25:14.752Z,89.70
2022-11-21T10:27:49.771Z,90.00
2022-11-21T10:30:20.290Z,90.40
2022-11-21T10:32:57.895Z,90.50
2022-11-21T10:35:52.320Z,90.90
2022-11-21T10:38:25.778Z,90.30
2022-11-21T10:41:16.787Z,89.00
2022-11-21T10:44:12.062Z,88.30
2022-11-21T10:46:38.279Z,86.80
2022-11-21T10:49:04.569Z,86.80
2022-11-21T10:51:50.057Z,88.20
2022-11-21T10:54:34.570Z,88.50
2022-11-21T10:57:12.617Z,88.50
2022-11-21T10:59:38.948Z,88.30
2022-11-21T11:03:07.099Z,89.20
2022-11-21T11:05:37.705Z,89.30
2022-11-21T11:08:10.184Z,88.40
2022-11-21T11:10:41.249Z,88.60
2022-11-21T11:14:21.199Z,88.20
2022-11-21T11:16:48.334Z,88.70
2022-11-21T11:19:22.263Z,88.90
2022-11-21T11:21:50.839Z,88.80
2022-11-21T11:24:21.499Z,88.90
2022-11-21T11:26:54.778Z,88.60
2022-11-21T11:29:30.274Z,89.20
2022-11-21T11:32:03.230Z,89.60
2022-11-21T11:35:00.046Z,90.00
2022-11-21T11:38:08.975Z,88.90
2022-11-21T11:40:42.689Z,89.50
2022-11-21T11:44:30.407Z,89.10
2022-11-21T11:47:30.015Z,89.20
2022-11-21T11:50:11.224Z,89.30
2022-11-21T11:53:01.383Z,88.80
2022-11-21T11:56:32.335Z,88.70
2022-11-21T11:59:18.046Z,88.80
2022-11-21T12:02:33.231Z,89.10
2022-11-21T12:05:04.861Z,88.90
2022-11-21T12:11:06.223Z,88.30
2022-11-21T12:13:33.460Z,88.40
2022-11-21T12:16:08.525Z,88.10
2022-11-21T12:18:55.551Z,88.30
2022-11-21T12:21:22.823Z,88.00
2022-11-21T12:23:50.517Z,88.10
2022-11-21T12:27:09.163Z,88.50
2022-11-21T12:30:17.697Z,88.50
2022-11-21T12:33:27.253Z,88.60
2022-11-21T12:38:44.963Z,87.40
2022-11-21T12:41:47.888Z,86.90
2022-11-21T12:44:44.169Z,86.90
2022-11-21T12:54:37.597Z,87.00
2022-11-21T12:58:12.248Z,88.50
2022-11-21T13:01:21.677Z,88.70
2022-11-21T13:04:01.021Z,89.40
2022-11-21T13:06:43.961Z,89.70
2022-11-21T13:09:15.022Z,90.20
2022-11-21T13:14:57.718Z,90.80
2022-11-21T13:18:28.323Z,90.60
2022-11-21T13:20:54.486Z,91.00
2022-11-21T13:23:40.654Z,91.10
2022-11-21T13:26:47.055Z,91.50
2022-11-21T13:29:13.677Z,91.80
2022-11-21T13:31:40.238Z,91.90
2022-11-21T13:34:37.438Z,92.00
2022-11-21T13:37:04.640Z,92.00
2022-11-21T13:39:32.811Z,92.00
2022-11-21T13:42:27.506Z,91.80
2022-11-21T13:44:53.776Z,91.80
2022-11-21T13:47:43.971Z,91.90
2022-11-21T13:57:12.999Z,91.90
2022-11-21T14:04:54.466Z,92.00
2022-11-21T14:07:23.096Z,91.70
2022-11-21T14:09:53.925Z,91.90
2022-11-21T14:12:54.838Z,92.00
2022-11-21T14:15:43.526Z,92.00
2022-11-21T14:18:20.080Z,91.90
2022-11-21T14:21:01.010Z,92.00
2022-11-21T14:23:33.197Z,91.90
2022-11-21T14:27:22.209Z,95.10
2022-11-21T14:29:48.863Z,91.60
2022-11-21T14:32:15.293Z,91.80
2022-11-21T14:34:41.538Z,91.80
2022-11-21T14:37:08.196Z,91.80
2022-11-21T14:39:43.678Z,91.70
2022-11-21T14:42:13.035Z,91.80
2022-11-21T14:44:39.355Z,91.90
2022-11-21T14:47:25.725Z,92.00
2022-11-21T14:49:54.459Z,92.00
2022-11-21T14:52:28.687Z,91.90
2022-11-21T14:55:28.405Z,91.90
2022-11-21T14:57:57.053Z,91.70
2022-11-21T15:03:24.637Z,91.50
2022-11-21T15:06:05.093Z,91.50
2022-11-21T15:11:39.708Z,91.40
2022-11-21T15:14:15.888Z,91.40
2022-11-21T15:16:47.569Z,91.40
2022-11-21T15:19:32.814Z,91.40
2022-11-21T15:22:04.133Z,91.50
2022-11-21T15:24:42.183Z,91.50
2022-11-21T15:27:36.046Z,91.30
2022-11-21T15:30:31.356Z,91.40
2022-11-21T15:33:17.291Z,91.50
2022-11-21T15:35:56.274Z,91.40
2022-11-21T15:38:33.232Z,91.40
2022-11-21T15:41:24.397Z,91.50
2022-11-21T15:43:52.777Z,91.40
2022-11-21T15:46:20.810Z,91.30
2022-11-21T15:48:48.229Z,91.20
2022-11-21T15:51:15.884Z,90.90
2022-11-21T15:53:42.035Z,91.00
2022-11-21T15:56:10.982Z,91.10
2022-11-21T15:58:37.163Z,91.20
2022-11-21T16:01:03.568Z,91.20
2022-11-21T16:03:29.780Z,91.30
2022-11-21T16:05:56.054Z,91.10
2022-11-21T16:08:22.862Z,91.00
2022-11-21T16:10:49.105Z,91.10
2022-11-21T16:13:15.730Z,91.20
2022-11-21T16:15:41.954Z,91.30
2022-11-21T16:18:08.131Z,91.20
2022-11-21T16:20:34.526Z,91.30
2022-11-21T16:23:00.681Z,91.00
2022-11-21T16:25:26.907Z,91.40
2022-11-21T16:27:53.296Z,91.40
2022-11-21T16:30:19.672Z,91.10
2022-11-21T16:32:47.146Z,91.00
2022-11-21T16:35:14.648Z,91.10
2022-11-21T16:37:41.367Z,91.00
2022-11-21T16:40:09.163Z,91.00
2022-11-21T16:42:35.839Z,91.10
2022-11-21T16:45:02.620Z,91.10
2022-11-21T16:47:29.161Z,90.80
2022-11-21T16:49:55.522Z,91.10
2022-11-21T16:52:25.924Z,91.40
2022-11-21T16:54:52.321Z,91.50
2022-11-21T16:57:19.037Z,91.10
2022-11-21T16:59:47.017Z,91.70
2022-11-21T17:02:14.224Z,91.30
2022-11-21T17:04:41.189Z,91.10
2022-11-21T17:07:11.545Z,91.40
2022-11-21T17:09:39.455Z,91.10
2022-11-21T17:12:08.473Z,91.20
2022-11-21T17:14:35.448Z,91.30
2022-11-21T17:17:02.158Z,91.20
2022-11-21T17:19:29.153Z,91.40
2022-11-21T17:21:55.937Z,91.50
2022-11-21T17:24:22.546Z,91.50
2022-11-21T17:26:49.524Z,91.70
2022-11-21T17:29:15.916Z,91.70
2022-11-21T17:31:42.790Z,91.40
2022-11-21T17:34:09.990Z,92.20
2022-11-21T17:36:37.362Z,91.50
2022-11-21T17:39:04.760Z,91.60
2022-11-21T17:41:31.594Z,91.60
2022-11-21T17:43:58.557Z,91.50
2022-11-21T17:46:25.844Z,91.50
2022-11-21T17:48:55.297Z,91.30
2022-11-21T17:51:30.735Z,91.40
2022-11-21T17:53:57.165Z,91.30
2022-11-21T17:56:26.357Z,91.20
2022-11-21T17:58:52.931Z,91.70
2022-11-21T18:01:19.995Z,91.50
2022-11-21T18:03:54.110Z,91.90
2022-11-21T18:06:20.903Z,91.80
2022-11-21T18:08:48.270Z,92.10
2022-11-21T18:11:21.632Z,92.10
2022-11-21T18:13:48.909Z,92.10
2022-11-21T18:16:17.045Z,92.10
2022-11-21T18:18:43.314Z,92.00
2022-11-21T18:21:15.330Z,92.00
2022-11-21T18:23:43.304Z,92.00
2022-11-21T18:26:14.448Z,91.80
2022-11-21T18:28:40.929Z,91.70
2022-11-21T18:31:15.209Z,91.40
2022-11-21T18:33:42.200Z,91.50
2022-11-21T18:36:09.093Z,91.40
2022-11-21T18:39:00.647Z,91.70
2022-11-21T18:41:38.799Z,91.60
2022-11-21T18:44:06.990Z,91.60
2022-11-21T18:46:34.273Z,91.70
2022-11-21T18:49:05.389Z,91.50
2022-11-21T18:51:33.718Z,91.50
2022-11-21T18:54:04.077Z,91.40
2022-11-21T18:56:30.941Z,91.40
2022-11-21T18:58:59.064Z,91.30
2022-11-21T19:01:27.816Z,91.50
2022-11-21T19:03:56.841Z,91.40
2022-11-21T19:06:24.128Z,91.40
2022-11-21T19:08:52.704Z,90.90
2022-11-21T19:11:19.771Z,91.00
2022-11-21T19:13:48.254Z,90.90
2022-11-21T19:16:17.164Z,91.10
2022-11-21T19:18:59.766Z,90.80
2022-11-21T19:21:38.977Z,90.50
2022-11-21T19:24:09.109Z,90.50
2022-11-21T19:26:35.866Z,90.80
2022-11-21T19:29:03.012Z,90.90
2022-11-21T19:31:30.336Z,91.30
2022-11-21T19:33:59.731Z,91.50
2022-11-21T19:36:25.962Z,91.80
2022-11-21T19:38:52.352Z,92.00
2022-11-21T19:41:24.909Z,92.20
2022-11-21T19:43:58.556Z,92.20
2022-11-21T19:46:26.423Z,92.30
2022-11-21T19:48:53.932Z,92.50
2022-11-21T19:51:21.271Z,92.90
2022-11-21T19:53:48.617Z,92.90
2022-11-21T19:56:24.166Z,93.00
2022-11-21T19:58:51.170Z,93.70
2022-11-21T20:01:19.374Z,93.50
2022-11-21T20:03:47.387Z,93.50
2022-11-21T20:06:18.425Z,93.70
2022-11-21T20:08:54.719Z,93.60
2022-11-21T20:11:21.427Z,93.70
2022-11-21T20:13:48.499Z,93.50
2022-11-21T20:16:34.473Z,93.50
2022-11-21T20:19:06.053Z,93.60
2022-11-21T20:21:33.936Z,94.00
2022-11-21T20:24:00.624Z,94.50
2022-11-21T20:26:27.479Z,94.60
2022-11-21T20:28:53.872Z,94.70
2022-11-21T20:31:26.775Z,94.70
2022-11-21T20:33:56.618Z,94.60
2022-11-21T20:36:24.544Z,94.50
2022-11-21T20:38:53.290Z,94.70
2022-11-21T20:41:20.573Z,94.70
2022-11-21T20:46:43.894Z,94.40
2022-11-21T20:49:10.809Z,94.20
2022-11-21T20:54:33.418Z,93.60
2022-11-21T20:56:59.709Z,93.60
2022-11-21T20:59:26.909Z,93.50
2022-11-21T21:01:53.899Z,93.50
2022-11-21T21:04:20.915Z,93.40
2022-11-21T21:06:48.254Z,93.40
2022-11-21T21:09:16.080Z,93.50
2022-11-21T21:11:52.168Z,93.10
2022-11-21T21:14:21.135Z,92.90
2022-11-21T21:16:47.621Z,92.90
2022-11-21T21:19:14.137Z,93.10
2022-11-21T21:21:45.100Z,93.10
2022-11-21T21:24:11.941Z,93.10
2022-11-21T21:26:43.986Z,93.20
2022-11-21T21:29:11.889Z,93.10
2022-11-21T21:31:38.631Z,93.10
2022-11-21T21:34:09.393Z,93.00
2022-11-21T21:36:37.721Z,93.10
2022-11-21T21:39:04.149Z,93.20
2022-11-21T21:41:31.534Z,93.00
2022-11-21T21:44:00.272Z,93.00
2022-11-21T21:46:28.367Z,92.80
2022-11-21T21:48:56.213Z,92.90
2022-11-21T21:51:27.858Z,93.00
2022-11-21T21:53:56.659Z,92.90
2022-11-21T21:56:24.920Z,92.90
2022-11-21T21:58:52.095Z,93.00
2022-11-21T22:01:23.076Z,92.80
2022-11-21T22:03:53.310Z,92.80
2022-11-21T22:06:19.697Z,92.90
2022-11-21T22:08:46.401Z,92.70
2022-11-21T22:11:17.321Z,92.70
2022-11-21T22:13:44.328Z,92.70
2022-11-21T22:16:11.557Z,92.60
2022-11-21T22:18:38.188Z,92.70
2022-11-21T22:21:23.124Z,92.70
2022-11-21T22:24:23.676Z,92.60
2022-11-21T22:26:51.380Z,92.70
2022-11-21T22:29:17.734Z,92.70
2022-11-21T22:31:44.737Z,92.70
2022-11-21T22:34:12.739Z,92.80
2022-11-21T22:36:40.369Z,92.90
2022-11-21T22:39:06.853Z,92.90
2022-11-21T22:41:33.063Z,92.80
2022-11-21T22:43:59.361Z,92.80
2022-11-21T22:46:29.482Z,92.80
2022-11-21T22:48:55.810Z,92.70
2022-11-21T22:51:24.584Z,92.80
2022-11-21T22:53:50.914Z,92.80
2022-11-21T22:56:18.645Z,93.00
2022-11-21T22:58:45.238Z,92.90
2022-11-21T23:01:16.724Z,93.00
2022-11-21T23:03:43.374Z,92.90
2022-11-21T23:06:15.182Z,92.80
2022-11-21T23:08:41.491Z,92.60
2022-11-21T23:11:12.262Z,92.60
2022-11-21T23:13:39.170Z,92.80
2022-11-21T23:16:05.968Z,92.70
2022-11-21T23:18:32.459Z,92.80
2022-11-21T23:20:58.973Z,92.90
2022-11-21T23:23:25.593Z,92.80
2022-11-21T23:25:52.531Z,92.80
2022-11-21T23:28:19.215Z,92.80
2022-11-21T23:30:47.981Z,92.90
2022-11-21T23:33:15.115Z,92.80
2022-11-21T23:35:45.075Z,93.10
2022-11-21T23:38:12.111Z,93.10
2022-11-21T23:40:39.280Z,92.90
2022-11-21T23:43:06.141Z,92.60
2022-11-21T23:45:32.356Z,92.70
2022-11-21T23:47:58.930Z,92.80
2022-11-21T23:50:45.488Z,92.80
2022-11-21T23:53:11.903Z,93.90
2022-11-21T23:55:38.162Z,93.00
2022-11-21T23:58:04.619Z,93.00
